Land O Lakes, Florida
Current Conditions -  °F | °C
As of 3:53 PM on Friday 31 Oct 2014 (Local Time) from KBKV Reporting Station
Clear Clear  
Wind Chill: 72°   Ceiling: Unl
Heat Index: 72°   Visibility: 10mi
Dew Point: 47°   Wind: 15mph
Humidity: 41%   Direction: 300°WNW
Pressure: 29.84"   Gusts: NA
Location:  28.28°N, 82.45°W
Report Text: KBKV 311953Z 30013KT 10SM CLR 22/08 A2984 RMK AO2 SLP104 T02220083
Loading
Personal Weather Stations






























Interactive Weather Map
Tropical Storm Tracking
New forecast layout! Learn more

10-Day Weather Forecast

Advertisements
Track Severe Weather on mobile